sensor_id;sensor_type;location;lat;lon;timestamp;pressure;altitude;pressure_sealevel;temperature;humidity
41312;BME280;27061;41.648;24.568;2023-11-18T00:00:17;84896.09;;;7.33;71.94
41312;BME280;27061;41.648;24.568;2023-11-18T00:02:45;84850.44;;;7.07;71.98
41312;BME280;27061;41.648;24.568;2023-11-18T00:05:13;84913.63;;;7.54;72.12
41312;BME280;27061;41.648;24.568;2023-11-18T00:07:41;84695.50;;;5.96;71.84
41312;BME280;27061;41.648;24.568;2023-11-18T00:10:09;84899.75;;;7.60;72.12
41312;BME280;27061;41.648;24.568;2023-11-18T00:12:37;84903.50;;;7.43;71.60
41312;BME280;27061;41.648;24.568;2023-11-18T00:15:08;84879.06;;;7.22;72.44
41312;BME280;27061;41.648;24.568;2023-11-18T00:17:38;84677.13;;;5.84;72.80
41312;BME280;27061;41.648;24.568;2023-11-18T00:20:06;84875.28;;;7.42;74.04
41312;BME280;27061;41.648;24.568;2023-11-18T00:22:36;84866.59;;;7.27;74.66
41312;BME280;27061;41.648;24.568;2023-11-18T00:25:04;84691.47;;;5.93;74.51
41312;BME280;27061;41.648;24.568;2023-11-18T00:27:35;84761.38;;;6.45;74.57
41312;BME280;27061;41.648;24.568;2023-11-18T00:30:06;84855.66;;;7.23;74.57
41312;BME280;27061;41.648;24.568;2023-11-18T00:32:35;84873.97;;;7.39;74.34
41312;BME280;27061;41.648;24.568;2023-11-18T00:35:03;84671.63;;;5.84;74.08
41312;BME280;27061;41.648;24.568;2023-11-18T00:37:33;84756.50;;;6.49;74.19
41312;BME280;27061;41.648;24.568;2023-11-18T00:40:01;84729.06;;;6.45;74.36
41312;BME280;27061;41.648;24.568;2023-11-18T00:42:30;84700.34;;;6.36;74.81
41312;BME280;27061;41.648;24.568;2023-11-18T00:44:57;84621.69;;;5.73;74.62
41312;BME280;27061;41.648;24.568;2023-11-18T00:47:24;84720.78;;;6.47;72.90
41312;BME280;27061;41.648;24.568;2023-11-18T00:49:52;84748.16;;;6.55;72.72
41312;BME280;27061;41.648;24.568;2023-11-18T00:52:24;84637.28;;;5.85;72.79
41312;BME280;27061;41.648;24.568;2023-11-18T00:54:51;84602.94;;;5.43;72.44
41312;BME280;27061;41.648;24.568;2023-11-18T00:57:18;84869.34;;;7.27;72.61
41312;BME280;27061;41.648;24.568;2023-11-18T00:59:46;84712.66;;;6.39;72.21
41312;BME280;27061;41.648;24.568;2023-11-18T01:02:14;84831.41;;;6.93;71.63
41312;BME280;27061;41.648;24.568;2023-11-18T01:04:41;84614.31;;;5.62;72.56
41312;BME280;27061;41.648;24.568;2023-11-18T01:07:08;84851.50;;;7.24;73.63
41312;BME280;27061;41.648;24.568;2023-11-18T01:09:36;84582.47;;;5.36;73.83
41312;BME280;27061;41.648;24.568;2023-11-18T01:12:06;84716.78;;;6.40;73.94
41312;BME280;27061;41.648;24.568;2023-11-18T01:14:38;84817.19;;;7.19;73.42
41312;BME280;27061;41.648;24.568;2023-11-18T01:17:06;84551.31;;;5.10;72.88
41312;BME280;27061;41.648;24.568;2023-11-18T01:19:34;84662.66;;;5.87;72.14
41312;BME280;27061;41.648;24.568;2023-11-18T01:22:02;84841.41;;;7.50;72.73
41312;BME280;27061;41.648;24.568;2023-11-18T01:24:42;84494.81;;;4.83;73.79
41312;BME280;27061;41.648;24.568;2023-11-18T01:27:20;84732.66;;;6.77;74.04
41312;BME280;27061;41.648;24.568;2023-11-18T01:29:54;84464.44;;;4.52;74.17
41312;BME280;27061;41.648;24.568;2023-11-18T01:32:27;84840.22;;;7.41;74.04
41312;BME280;27061;41.648;24.568;2023-11-18T01:35:11;84671.28;;;6.08;74.37
41312;BME280;27061;41.648;24.568;2023-11-18T01:37:48;84515.91;;;4.94;74.23
41312;BME280;27061;41.648;24.568;2023-11-18T01:40:16;84686.81;;;6.24;74.29
41312;BME280;27061;41.648;24.568;2023-11-18T01:42:44;84826.56;;;7.34;74.22
41312;BME280;27061;41.648;24.568;2023-11-18T01:45:13;84669.59;;;6.25;73.74
41312;BME280;27061;41.648;24.568;2023-11-18T01:47:41;84661.66;;;6.07;73.35
41312;BME280;27061;41.648;24.568;2023-11-18T01:50:13;84810.00;;;7.37;73.61
41312;BME280;27061;41.648;24.568;2023-11-18T01:52:42;84478.94;;;4.89;73.54
41312;BME280;27061;41.648;24.568;2023-11-18T01:55:13;84511.78;;;4.95;73.56
41312;BME280;27061;41.648;24.568;2023-11-18T01:57:40;84690.38;;;6.16;73.25
41312;BME280;27061;41.648;24.568;2023-11-18T02:00:14;84635.94;;;5.84;72.81
41312;BME280;27061;41.648;24.568;2023-11-18T02:02:45;84571.09;;;5.19;71.09
41312;BME280;27061;41.648;24.568;2023-11-18T02:05:14;84770.84;;;6.56;72.48
41312;BME280;27061;41.648;24.568;2023-11-18T02:07:43;84694.50;;;5.70;73.38
41312;BME280;27061;41.648;24.568;2023-11-18T02:10:10;84498.63;;;4.57;73.06
41312;BME280;27061;41.648;24.568;2023-11-18T02:13:04;84691.28;;;6.03;71.82
41312;BME280;27061;41.648;24.568;2023-11-18T02:15:35;84482.53;;;4.32;71.32
41312;BME280;27061;41.648;24.568;2023-11-18T02:18:06;84614.06;;;5.33;71.30
41312;BME280;27061;41.648;24.568;2023-11-18T02:20:37;84765.22;;;6.19;71.41
41312;BME280;27061;41.648;24.568;2023-11-18T02:23:06;84496.66;;;3.98;72.97
41312;BME280;27061;41.648;24.568;2023-11-18T02:25:48;84713.78;;;5.66;72.56
41312;BME280;27061;41.648;24.568;2023-11-18T02:28:16;84606.47;;;4.88;72.04
41312;BME280;27061;41.648;24.568;2023-11-18T02:30:44;84783.25;;;6.08;72.56
41312;BME280;27061;41.648;24.568;2023-11-18T02:33:17;84820.06;;;6.27;74.08
41312;BME280;27061;41.648;24.568;2023-11-18T02:35:53;84673.38;;;5.09;74.80
41312;BME280;27061;41.648;24.568;2023-11-18T02:38:41;84654.63;;;4.75;74.33
41312;BME280;27061;41.648;24.568;2023-11-18T02:41:12;84709.81;;;5.04;75.17
41312;BME280;27061;41.648;24.568;2023-11-18T02:43:42;84516.38;;;3.49;75.55
41312;BME280;27061;41.648;24.568;2023-11-18T02:46:12;84805.72;;;5.71;74.11
41312;BME280;27061;41.648;24.568;2023-11-18T02:48:43;84491.91;;;3.31;74.74
41312;BME280;27061;41.648;24.568;2023-11-18T02:51:10;84740.38;;;5.29;74.95
41312;BME280;27061;41.648;24.568;2023-11-18T02:53:39;84499.22;;;3.51;74.23
41312;BME280;27061;41.648;24.568;2023-11-18T02:56:08;84653.59;;;4.46;75.74
41312;BME280;27061;41.648;24.568;2023-11-18T02:58:35;84783.28;;;5.52;73.46
41312;BME280;27061;41.648;24.568;2023-11-18T03:01:03;84596.59;;;3.97;72.96
41312;BME280;27061;41.648;24.568;2023-11-18T03:03:32;84601.97;;;4.07;73.59
41312;BME280;27061;41.648;24.568;2023-11-18T03:05:59;84736.94;;;5.28;73.52
41312;BME280;27061;41.648;24.568;2023-11-18T03:08:27;84459.38;;;3.05;72.81
41312;BME280;27061;41.648;24.568;2023-11-18T03:10:57;84648.53;;;4.07;74.20
41312;BME280;27061;41.648;24.568;2023-11-18T03:13:33;84592.03;;;3.75;73.50
41312;BME280;27061;41.648;24.568;2023-11-18T03:16:10;84677.78;;;4.27;74.70
41312;BME280;27061;41.648;24.568;2023-11-18T03:18:40;84770.16;;;5.02;75.11
41312;BME280;27061;41.648;24.568;2023-11-18T03:21:11;84728.94;;;4.49;74.52
41312;BME280;27061;41.648;24.568;2023-11-18T03:23:43;84646.09;;;3.75;74.20
41312;BME280;27061;41.648;24.568;2023-11-18T03:26:10;84495.22;;;2.66;74.17
41312;BME280;27061;41.648;24.568;2023-11-18T03:28:50;84633.84;;;3.67;73.93
41312;BME280;27061;41.648;24.568;2023-11-18T03:31:17;84682.25;;;3.89;74.28
41312;BME280;27061;41.648;24.568;2023-11-18T03:33:44;84617.56;;;3.53;74.15
41312;BME280;27061;41.648;24.568;2023-11-18T03:36:12;84677.28;;;4.10;75.60
41312;BME280;27061;41.648;24.568;2023-11-18T03:38:47;84651.97;;;4.05;76.19
41312;BME280;27061;41.648;24.568;2023-11-18T03:41:24;84750.72;;;4.65;76.35
41312;BME280;27061;41.648;24.568;2023-11-18T03:43:57;84781.25;;;4.94;76.63
41312;BME280;27061;41.648;24.568;2023-11-18T03:46:25;84678.56;;;4.15;76.99
41312;BME280;27061;41.648;24.568;2023-11-18T03:48:52;84454.31;;;2.56;75.18
41312;BME280;27061;41.648;24.568;2023-11-18T03:51:36;84409.56;;;2.20;75.58
41312;BME280;27061;41.648;24.568;2023-11-18T03:54:03;84765.56;;;4.84;75.69
41312;BME280;27061;41.648;24.568;2023-11-18T03:56:31;84527.06;;;3.02;74.44
41312;BME280;27061;41.648;24.568;2023-11-18T03:58:58;84741.75;;;4.68;73.89
41312;BME280;27061;41.648;24.568;2023-11-18T04:01:26;84651.38;;;3.95;72.52
41312;BME280;27061;41.648;24.568;2023-11-18T04:03:56;84499.28;;;2.73;73.89
41312;BME280;27061;41.648;24.568;2023-11-18T04:06:24;84655.59;;;3.86;74.75
41312;BME280;27061;41.648;24.568;2023-11-18T04:08:51;84645.50;;;3.66;74.81
41312;BME280;27061;41.648;24.568;2023-11-18T04:11:19;84772.00;;;4.56;73.95
41312;BME280;27061;41.648;24.568;2023-11-18T04:13:46;84737.44;;;4.20;73.76
41312;BME280;27061;41.648;24.568;2023-11-18T04:16:15;84794.56;;;4.65;72.96
41312;BME280;27061;41.648;24.568;2023-11-18T04:18:43;84684.47;;;3.71;74.40
41312;BME280;27061;41.648;24.568;2023-11-18T04:21:12;84593.34;;;3.03;74.30
41312;BME280;27061;41.648;24.568;2023-11-18T04:23:44;84703.56;;;3.77;73.54
41312;BME280;27061;41.648;24.568;2023-11-18T04:26:13;84786.56;;;4.38;73.83
41312;BME280;27061;41.648;24.568;2023-11-18T04:28:41;84797.53;;;4.38;74.08
41312;BME280;27061;41.648;24.568;2023-11-18T04:31:09;84662.91;;;3.28;74.05
41312;BME280;27061;41.648;24.568;2023-11-18T04:33:36;84650.75;;;3.05;75.27
41312;BME280;27061;41.648;24.568;2023-11-18T04:36:04;84728.28;;;3.68;75.22
41312;BME280;27061;41.648;24.568;2023-11-18T04:38:32;84750.72;;;3.87;76.38
41312;BME280;27061;41.648;24.568;2023-11-18T04:41:00;84630.34;;;2.91;76.19
41312;BME280;27061;41.648;24.568;2023-11-18T04:43:30;84599.16;;;2.54;76.49
41312;BME280;27061;41.648;24.568;2023-11-18T04:46:10;84434.53;;;1.56;75.85
41312;BME280;27061;41.648;24.568;2023-11-18T04:48:39;84778.69;;;3.98;75.88
41312;BME280;27061;41.648;24.568;2023-11-18T04:51:08;84805.16;;;4.28;74.70
41312;BME280;27061;41.648;24.568;2023-11-18T04:53:36;84514.00;;;2.15;75.28
41312;BME280;27061;41.648;24.568;2023-11-18T04:56:04;84665.75;;;3.12;75.15
41312;BME280;27061;41.648;24.568;2023-11-18T04:58:31;84677.38;;;3.08;75.17
41312;BME280;27061;41.648;24.568;2023-11-18T05:00:59;84785.63;;;3.89;75.47
41312;BME280;27061;41.648;24.568;2023-11-18T05:03:26;84773.97;;;3.90;73.95
41312;BME280;27061;41.648;24.568;2023-11-18T05:05:54;84752.28;;;3.60;74.55
41312;BME280;27061;41.648;24.568;2023-11-18T05:08:24;84819.69;;;4.10;73.86
41312;BME280;27061;41.648;24.568;2023-11-18T05:10:52;84775.44;;;3.77;74.45
41312;BME280;27061;41.648;24.568;2023-11-18T05:13:20;84809.50;;;3.98;74.65
41312;BME280;27061;41.648;24.568;2023-11-18T05:15:49;84810.88;;;3.95;75.01
41312;BME280;27061;41.648;24.568;2023-11-18T05:18:17;84637.28;;;2.72;73.26
41312;BME280;27061;41.648;24.568;2023-11-18T05:20:45;84750.41;;;3.34;75.14
41312;BME280;27061;41.648;24.568;2023-11-18T05:23:12;84778.25;;;3.63;76.08
41312;BME280;27061;41.648;24.568;2023-11-18T05:25:40;84776.84;;;3.70;75.99
41312;BME280;27061;41.648;24.568;2023-11-18T05:28:08;84796.59;;;3.85;73.99
41312;BME280;27061;41.648;24.568;2023-11-18T05:30:41;84806.09;;;3.94;75.28
41312;BME280;27061;41.648;24.568;2023-11-18T05:33:10;84704.09;;;3.00;74.85
41312;BME280;27061;41.648;24.568;2023-11-18T05:35:42;84606.09;;;2.29;76.13
41312;BME280;27061;41.648;24.568;2023-11-18T05:38:16;84667.41;;;2.64;76.29
41312;BME280;27061;41.648;24.568;2023-11-18T05:40:49;84653.13;;;2.49;75.96
41312;BME280;27061;41.648;24.568;2023-11-18T05:43:37;84775.00;;;3.36;77.04
41312;BME280;27061;41.648;24.568;2023-11-18T05:46:08;84672.19;;;2.55;76.96
41312;BME280;27061;41.648;24.568;2023-11-18T05:48:43;84604.09;;;2.17;77.55
41312;BME280;27061;41.648;24.568;2023-11-18T05:51:11;84743.78;;;2.97;77.74
41312;BME280;27061;41.648;24.568;2023-11-18T05:53:42;84837.19;;;3.46;76.54
41312;BME280;27061;41.648;24.568;2023-11-18T05:56:13;84600.22;;;1.53;76.42
41312;BME280;27061;41.648;24.568;2023-11-18T05:58:41;84803.16;;;3.14;76.30
41312;BME280;27061;41.648;24.568;2023-11-18T06:01:13;84732.28;;;2.64;75.83
41312;BME280;27061;41.648;24.568;2023-11-18T06:03:44;84822.91;;;3.29;75.14
41312;BME280;27061;41.648;24.568;2023-11-18T06:06:15;84788.84;;;2.98;77.54
41312;BME280;27061;41.648;24.568;2023-11-18T06:08:49;84808.00;;;2.96;76.74
41312;BME280;27061;41.648;24.568;2023-11-18T06:11:17;84855.75;;;3.27;77.33
41312;BME280;27061;41.648;24.568;2023-11-18T06:13:48;84724.84;;;2.38;76.42
41312;BME280;27061;41.648;24.568;2023-11-18T06:16:20;84799.84;;;2.79;77.30
41312;BME280;27061;41.648;24.568;2023-11-18T06:18:53;84767.84;;;2.49;77.40
41312;BME280;27061;41.648;24.568;2023-11-18T06:21:27;84838.13;;;2.77;78.27
41312;BME280;27061;41.648;24.568;2023-11-18T06:24:01;84840.75;;;3.16;78.36
41312;BME280;27061;41.648;24.568;2023-11-18T06:26:31;84756.25;;;2.43;78.96
41312;BME280;27061;41.648;24.568;2023-11-18T06:28:58;84768.47;;;2.66;79.05
41312;BME280;27061;41.648;24.568;2023-11-18T06:31:26;84818.28;;;2.91;78.24
41312;BME280;27061;41.648;24.568;2023-11-18T06:33:54;84847.56;;;3.21;78.05
41312;BME280;27061;41.648;24.568;2023-11-18T06:36:22;84831.22;;;3.07;78.42
41312;BME280;27061;41.648;24.568;2023-11-18T06:38:52;84782.81;;;2.71;77.90
41312;BME280;27061;41.648;24.568;2023-11-18T06:41:21;84794.34;;;2.87;77.51
41312;BME280;27061;41.648;24.568;2023-11-18T06:44:01;84856.41;;;3.31;77.30
41312;BME280;27061;41.648;24.568;2023-11-18T06:46:36;84854.31;;;3.42;77.85
41312;BME280;27061;41.648;24.568;2023-11-18T06:49:08;84807.94;;;3.08;77.64
41312;BME280;27061;41.648;24.568;2023-11-18T06:51:38;84718.03;;;2.37;78.15
41312;BME280;27061;41.648;24.568;2023-11-18T06:54:06;84818.81;;;3.26;77.16
41312;BME280;27061;41.648;24.568;2023-11-18T06:56:42;84724.06;;;2.74;73.51
41312;BME280;27061;41.648;24.568;2023-11-18T06:59:11;84741.16;;;2.66;75.39
41312;BME280;27061;41.648;24.568;2023-11-18T07:01:43;84737.69;;;2.80;75.15
41312;BME280;27061;41.648;24.568;2023-11-18T07:04:12;84807.94;;;3.12;76.12
41312;BME280;27061;41.648;24.568;2023-11-18T07:06:42;84854.25;;;3.52;74.42
41312;BME280;27061;41.648;24.568;2023-11-18T07:09:11;84776.56;;;2.97;75.53
41312;BME280;27061;41.648;24.568;2023-11-18T07:11:44;84848.88;;;3.30;77.41
41312;BME280;27061;41.648;24.568;2023-11-18T07:14:28;84773.84;;;2.92;77.46
41312;BME280;27061;41.648;24.568;2023-11-18T07:16:56;84813.94;;;3.41;77.55
41312;BME280;27061;41.648;24.568;2023-11-18T07:19:23;84745.88;;;2.82;77.01
41312;BME280;27061;41.648;24.568;2023-11-18T07:21:51;84813.38;;;3.18;76.80
41312;BME280;27061;41.648;24.568;2023-11-18T07:24:18;84607.69;;;1.67;76.41
41312;BME280;27061;41.648;24.568;2023-11-18T07:26:47;84662.13;;;2.13;76.02
41312;BME280;27061;41.648;24.568;2023-11-18T07:29:16;84812.03;;;3.11;72.93
41312;BME280;27061;41.648;24.568;2023-11-18T07:31:44;84831.81;;;3.27;74.70
41312;BME280;27061;41.648;24.568;2023-11-18T07:34:12;84839.38;;;3.15;75.95
41312;BME280;27061;41.648;24.568;2023-11-18T07:36:43;84805.31;;;2.77;74.72
41312;BME280;27061;41.648;24.568;2023-11-18T07:39:16;84773.94;;;2.74;74.40
41312;BME280;27061;41.648;24.568;2023-11-18T07:41:51;84768.50;;;2.60;74.67
41312;BME280;27061;41.648;24.568;2023-11-18T07:44:25;84843.53;;;2.98;74.64
41312;BME280;27061;41.648;24.568;2023-11-18T07:46:55;84831.28;;;2.80;74.25
41312;BME280;27061;41.648;24.568;2023-11-18T07:49:22;84847.00;;;2.84;73.36
41312;BME280;27061;41.648;24.568;2023-11-18T07:51:53;84821.13;;;2.44;72.92
41312;BME280;27061;41.648;24.568;2023-11-18T07:54:20;84836.81;;;2.60;73.40
41312;BME280;27061;41.648;24.568;2023-11-18T07:56:48;84849.81;;;2.53;73.07
41312;BME280;27061;41.648;24.568;2023-11-18T07:59:16;84877.81;;;2.54;74.16
41312;BME280;27061;41.648;24.568;2023-11-18T08:01:45;84867.56;;;2.42;75.25
41312;BME280;27061;41.648;24.568;2023-11-18T08:04:13;84835.50;;;2.18;73.59
41312;BME280;27061;41.648;24.568;2023-11-18T08:06:41;84855.97;;;2.40;72.89
41312;BME280;27061;41.648;24.568;2023-11-18T08:09:16;84864.19;;;2.32;74.29
41312;BME280;27061;41.648;24.568;2023-11-18T08:11:50;84874.41;;;2.23;76.35
41312;BME280;27061;41.648;24.568;2023-11-18T08:14:18;84714.75;;;1.17;75.04
41312;BME280;27061;41.648;24.568;2023-11-18T08:16:45;84831.41;;;1.91;72.73
41312;BME280;27061;41.648;24.568;2023-11-18T08:19:13;84771.38;;;1.53;75.17
41312;BME280;27061;41.648;24.568;2023-11-18T08:21:43;84806.84;;;1.73;75.73
41312;BME280;27061;41.648;24.568;2023-11-18T08:24:10;84853.94;;;2.18;74.00
41312;BME280;27061;41.648;24.568;2023-11-18T08:26:37;84727.75;;;1.26;73.18
41312;BME280;27061;41.648;24.568;2023-11-18T08:29:05;84767.97;;;1.60;74.31
41312;BME280;27061;41.648;24.568;2023-11-18T08:31:33;84793.22;;;1.67;74.80
41312;BME280;27061;41.648;24.568;2023-11-18T08:34:02;84785.03;;;1.77;74.83
41312;BME280;27061;41.648;24.568;2023-11-18T08:36:29;84860.06;;;2.29;74.23
41312;BME280;27061;41.648;24.568;2023-11-18T08:38:59;84771.38;;;1.81;74.98
41312;BME280;27061;41.648;24.568;2023-11-18T08:41:26;84806.84;;;1.83;74.48
41312;BME280;27061;41.648;24.568;2023-11-18T08:43:53;84744.09;;;1.42;72.78
41312;BME280;27061;41.648;24.568;2023-11-18T08:46:21;84841.63;;;2.35;74.26
41312;BME280;27061;41.648;24.568;2023-11-18T08:48:48;84759.09;;;1.76;73.77
41312;BME280;27061;41.648;24.568;2023-11-18T08:51:16;84798.66;;;1.83;75.32
41312;BME280;27061;41.648;24.568;2023-11-18T08:53:43;84584.59;;;0.16;74.24
41312;BME280;27061;41.648;24.568;2023-11-18T08:56:12;84821.19;;;2.00;73.03
41312;BME280;27061;41.648;24.568;2023-11-18T08:58:43;84724.31;;;1.28;72.97
41312;BME280;27061;41.648;24.568;2023-11-18T09:01:12;84757.75;;;1.57;74.10
41312;BME280;27061;41.648;24.568;2023-11-18T09:03:42;84818.44;;;2.12;72.60
41312;BME280;27061;41.648;24.568;2023-11-18T09:06:10;84836.88;;;2.15;73.32
41312;BME280;27061;41.648;24.568;2023-11-18T09:09:08;84836.88;;;2.11;75.85
41312;BME280;27061;41.648;24.568;2023-11-18T09:11:38;84831.41;;;2.11;76.12
41312;BME280;27061;41.648;24.568;2023-11-18T09:14:08;84821.16;;;2.28;73.33
41312;BME280;27061;41.648;24.568;2023-11-18T09:16:35;84817.75;;;2.32;74.42
41312;BME280;27061;41.648;24.568;2023-11-18T09:19:06;84612.56;;;0.53;74.25
41312;BME280;27061;41.648;24.568;2023-11-18T09:21:33;84817.78;;;2.01;76.13
41312;BME280;27061;41.648;24.568;2023-11-18T09:24:03;84728.41;;;1.51;74.34
41312;BME280;27061;41.648;24.568;2023-11-18T09:26:32;84815.00;;;2.30;73.68
41312;BME280;27061;41.648;24.568;2023-11-18T09:29:02;84779.56;;;2.01;74.82
41312;BME280;27061;41.648;24.568;2023-11-18T09:31:29;84817.06;;;2.29;76.62
41312;BME280;27061;41.648;24.568;2023-11-18T09:33:59;84802.69;;;2.43;75.87
41312;BME280;27061;41.648;24.568;2023-11-18T09:36:27;84818.41;;;2.34;72.88
41312;BME280;27061;41.648;24.568;2023-11-18T09:38:56;84828.66;;;2.26;71.20
41312;BME280;27061;41.648;24.568;2023-11-18T09:41:23;84804.78;;;2.20;72.02
41312;BME280;27061;41.648;24.568;2023-11-18T09:43:55;84791.84;;;1.98;73.35
41312;BME280;27061;41.648;24.568;2023-11-18T09:46:27;84767.28;;;1.70;72.18
41312;BME280;27061;41.648;24.568;2023-11-18T09:51:35;84818.44;;;2.02;74.28
41312;BME280;27061;41.648;24.568;2023-11-18T09:54:05;84784.34;;;1.87;73.39
41312;BME280;27061;41.648;24.568;2023-11-18T09:59:32;84804.78;;;2.06;73.20
41312;BME280;27061;41.648;24.568;2023-11-18T10:02:03;84779.56;;;1.81;73.53
41312;BME280;27061;41.648;24.568;2023-11-18T10:04:33;84774.09;;;1.65;73.91
41312;BME280;27061;41.648;24.568;2023-11-18T10:07:02;84744.06;;;1.18;72.15
41312;BME280;27061;41.648;24.568;2023-11-18T10:09:30;84801.38;;;1.93;72.34
41312;BME280;27061;41.648;24.568;2023-11-18T10:12:07;84806.84;;;1.93;72.95
41312;BME280;27061;41.648;24.568;2023-11-18T10:14:35;84770.00;;;1.54;71.78
41312;BME280;27061;41.648;24.568;2023-11-18T10:17:06;84753.63;;;1.21;75.49
41312;BME280;27061;41.648;24.568;2023-11-18T10:19:55;84815.03;;;1.65;72.91
41312;BME280;27061;41.648;24.568;2023-11-18T10:22:49;84786.38;;;1.66;73.93
41312;BME280;27061;41.648;24.568;2023-11-18T10:25:23;84730.44;;;1.28;76.27
41312;BME280;27061;41.648;24.568;2023-11-18T10:27:51;84774.09;;;1.42;73.68
41312;BME280;27061;41.648;24.568;2023-11-18T10:30:18;84750.91;;;1.19;74.98
41312;BME280;27061;41.648;24.568;2023-11-18T10:33:00;84744.75;;;1.10;74.99
41312;BME280;27061;41.648;24.568;2023-11-18T10:35:34;84766.59;;;1.43;75.14
41312;BME280;27061;41.648;24.568;2023-11-18T10:38:02;84786.38;;;1.54;76.26
41312;BME280;27061;41.648;24.568;2023-11-18T10:40:32;84792.53;;;1.54;75.45
41312;BME280;27061;41.648;24.568;2023-11-18T10:43:04;84785.03;;;1.65;74.09
41312;BME280;27061;41.648;24.568;2023-11-18T11:12:09;84589.91;;;-0.33;77.54
41312;BME280;27061;41.648;24.568;2023-11-18T11:15:12;84749.50;;;0.94;77.70
41312;BME280;27061;41.648;24.568;2023-11-18T11:17:57;84797.28;;;1.33;75.11
41312;BME280;27061;41.648;24.568;2023-11-18T11:21:20;84791.75;;;1.01;73.57
41312;BME280;27061;41.648;24.568;2023-11-18T11:23:53;84824.53;;;1.25;74.53
41312;BME280;27061;41.648;24.568;2023-11-18T11:29:04;84829.94;;;1.11;76.40
41312;BME280;27061;41.648;24.568;2023-11-18T11:31:41;84775.41;;;0.95;76.71
41312;BME280;27061;41.648;24.568;2023-11-18T11:36:44;84787.66;;;0.98;76.47
41312;BME280;27061;41.648;24.568;2023-11-18T11:39:13;84824.47;;;1.01;75.01
41312;BME280;27061;41.648;24.568;2023-11-18T11:42:08;84715.16;;;0.04;75.05
41312;BME280;27061;41.648;24.568;2023-11-18T11:44:37;84762.97;;;0.41;75.99
41312;BME280;27061;41.648;24.568;2023-11-18T12:03:31;84685.09;;;-0.33;77.03
41312;BME280;27061;41.648;24.568;2023-11-18T12:06:04;84825.59;;;0.47;77.33
41312;BME280;27061;41.648;24.568;2023-11-18T12:52:17;84650.72;;;-1.81;83.06
41312;BME280;27061;41.648;24.568;2023-11-18T12:54:46;84860.59;;;-0.18;82.72
41312;BME280;27061;41.648;24.568;2023-11-18T12:57:20;84874.22;;;-0.16;80.10
41312;BME280;27061;41.648;24.568;2023-11-18T12:59:50;84795.13;;;-0.46;79.75
41312;BME280;27061;41.648;24.568;2023-11-18T13:02:17;84785.31;;;-0.82;79.77
41312;BME280;27061;41.648;24.568;2023-11-18T13:04:50;84693.94;;;-1.25;77.64
41312;BME280;27061;41.648;24.568;2023-11-18T13:07:20;84883.31;;;0.21;76.88
41312;BME280;27061;41.648;24.568;2023-11-18T13:09:48;84889.44;;;0.20;79.04
41312;BME280;27061;41.648;24.568;2023-11-18T13:12:18;84818.41;;;-0.23;78.50
41312;BME280;27061;41.648;24.568;2023-11-18T13:14:47;84884.00;;;0.20;77.13
41312;BME280;27061;41.648;24.568;2023-11-18T13:17:15;84809.56;;;-0.19;76.49
41312;BME280;27061;41.648;24.568;2023-11-18T13:19:44;84813.00;;;-0.17;76.93
41312;BME280;27061;41.648;24.568;2023-11-18T13:22:13;84841.63;;;-0.08;78.52
41312;BME280;27061;41.648;24.568;2023-11-18T13:24:42;84898.28;;;0.22;78.96
41312;BME280;27061;41.648;24.568;2023-11-18T13:27:19;84859.91;;;-0.18;76.39
41312;BME280;27061;41.648;24.568;2023-11-18T13:29:48;84838.81;;;-0.20;77.58
41312;BME280;27061;41.648;24.568;2023-11-18T13:32:21;84763.63;;;-0.76;78.27
41312;BME280;27061;41.648;24.568;2023-11-18T13:34:54;84828.53;;;-0.33;77.83
41312;BME280;27061;41.648;24.568;2023-11-18T13:37:22;84909.97;;;0.39;77.79
41312;BME280;27061;41.648;24.568;2023-11-18T13:39:57;84825.78;;;-0.35;76.17
41312;BME280;27061;41.648;24.568;2023-11-18T13:42:30;84912.63;;;0.27;78.76
41312;BME280;27061;41.648;24.568;2023-11-18T13:45:24;84916.72;;;0.32;75.48
41312;BME280;27061;41.648;24.568;2023-11-18T13:48:05;84848.97;;;-0.26;76.75
41312;BME280;27061;41.648;24.568;2023-11-18T13:50:35;84901.78;;;0.35;78.42
41312;BME280;27061;41.648;24.568;2023-11-18T13:53:06;84892.25;;;0.34;78.15
41312;BME280;27061;41.648;24.568;2023-11-18T13:55:34;84898.44;;;0.47;78.51
41312;BME280;27061;41.648;24.568;2023-11-18T13:58:03;84875.91;;;0.30;75.35
41312;BME280;27061;41.648;24.568;2023-11-18T14:00:31;84833.56;;;0.07;77.51
41312;BME280;27061;41.648;24.568;2023-11-18T14:02:59;84906.03;;;0.60;77.64
41312;BME280;27061;41.648;24.568;2023-11-18T14:05:27;84839.03;;;0.13;77.41
41312;BME280;27061;41.648;24.568;2023-11-18T14:07:54;84858.19;;;0.29;77.14
41312;BME280;27061;41.648;24.568;2023-11-18T14:10:36;84842.47;;;0.21;76.47
41312;BME280;27061;41.648;24.568;2023-11-18T14:13:08;84867.13;;;0.48;75.61
41312;BME280;27061;41.648;24.568;2023-11-18T14:15:44;84828.06;;;-0.04;75.99
41312;BME280;27061;41.648;24.568;2023-11-18T14:18:12;84867.72;;;0.28;76.39
41312;BME280;27061;41.648;24.568;2023-11-18T14:20:41;84906.66;;;0.55;75.95
41312;BME280;27061;41.648;24.568;2023-11-18T14:23:09;84880.69;;;0.38;75.32
41312;BME280;27061;41.648;24.568;2023-11-18T14:25:36;84905.94;;;0.46;75.80
41312;BME280;27061;41.648;24.568;2023-11-18T14:28:05;84924.38;;;0.58;77.11
41312;BME280;27061;41.648;24.568;2023-11-18T14:30:38;84886.81;;;0.38;75.22
41312;BME280;27061;41.648;24.568;2023-11-18T14:33:07;84851.13;;;-0.09;74.73
41312;BME280;27061;41.648;24.568;2023-11-18T14:35:35;84844.41;;;0.03;75.93
41312;BME280;27061;41.648;24.568;2023-11-18T14:38:02;84839.00;;;0.09;77.14
41312;BME280;27061;41.648;24.568;2023-11-18T14:40:30;84873.09;;;0.20;76.60
41312;BME280;27061;41.648;24.568;2023-11-18T14:42:59;84915.47;;;0.47;77.56
41312;BME280;27061;41.648;24.568;2023-11-18T14:45:26;84899.72;;;0.33;77.27
41312;BME280;27061;41.648;24.568;2023-11-18T14:47:55;84910.78;;;0.60;77.13
41312;BME280;27061;41.648;24.568;2023-11-18T14:50:23;84889.44;;;0.22;76.76
41312;BME280;27061;41.648;24.568;2023-11-18T14:52:52;84873.84;;;0.32;76.33
41312;BME280;27061;41.648;24.568;2023-11-18T14:55:27;84921.00;;;0.61;76.69